createdAt,value
2023-03-24T00:00:21.985Z,93156.27
2023-03-24T00:05:30.987Z,93155.22
2023-03-24T00:10:38.479Z,92981.84
2023-03-24T00:15:45.737Z,93157.30
2023-03-24T00:20:56.171Z,93150.37
2023-03-24T00:26:09.389Z,93146.52
2023-03-24T00:31:17.853Z,93136.09
2023-03-24T00:36:29.544Z,93126.93
2023-03-24T00:41:36.955Z,93130.57
2023-03-24T00:46:45.595Z,93112.61
2023-03-24T00:51:53.217Z,93112.81
2023-03-24T00:57:01.618Z,93104.39
2023-03-24T01:02:10.125Z,93103.03
2023-03-24T01:07:18.507Z,93099.55
2023-03-24T01:12:31.155Z,93093.11
2023-03-24T01:17:38.362Z,93091.87
2023-03-24T01:22:46.842Z,93090.41
2023-03-24T01:27:54.938Z,93087.17
2023-03-24T01:33:02.173Z,93082.27
2023-03-24T01:38:15.119Z,93074.84
2023-03-24T01:43:27.798Z,93073.56
2023-03-24T01:48:53.982Z,93070.06
2023-03-24T01:54:19.228Z,93063.20
2023-03-24T01:59:30.805Z,93063.20
2023-03-24T02:04:48.760Z,93078.48
2023-03-24T02:09:55.883Z,93069.20
2023-03-24T02:15:05.564Z,93054.08
2023-03-24T02:20:23.047Z,93039.94
2023-03-24T02:26:08.784Z,93043.66
2023-03-24T02:31:38.054Z,93048.23
2023-03-24T02:37:06.944Z,93045.03
2023-03-24T02:42:38.803Z,93028.04
2023-03-24T02:48:23.090Z,93023.31
2023-03-24T02:53:43.618Z,93023.02
2023-03-24T02:58:54.381Z,93025.33
2023-03-24T03:04:08.473Z,93027.05
2023-03-24T03:09:21.351Z,93016.12
2023-03-24T03:14:40.534Z,93013.85
2023-03-24T03:19:55.780Z,93002.53
2023-03-24T03:25:04.773Z,92998.08
2023-03-24T03:30:21.381Z,93000.88
2023-03-24T03:35:37.494Z,93002.03
2023-03-24T03:41:02.400Z,92995.23
2023-03-24T03:46:10.709Z,92991.42
2023-03-24T03:51:18.744Z,92992.62
2023-03-24T03:56:30.023Z,92986.37
2023-03-24T04:01:40.332Z,92983.34
2023-03-24T04:06:53.218Z,92976.91
2023-03-24T04:12:13.519Z,92976.16
2023-03-24T04:17:36.605Z,92963.20
2023-03-24T04:23:08.611Z,92966.78
2023-03-24T04:28:27.450Z,92969.64
2023-03-24T04:33:49.184Z,92961.78
2023-03-24T04:38:58.293Z,92963.65
2023-03-24T04:44:06.294Z,92952.12
2023-03-24T04:49:13.153Z,92949.72
2023-03-24T04:54:21.684Z,92949.98
2023-03-24T04:59:29.245Z,92945.11
2023-03-24T05:04:38.957Z,92954.03
2023-03-24T05:09:46.290Z,92952.95
2023-03-24T05:14:53.311Z,92954.19
2023-03-24T05:20:00.271Z,92957.09
2023-03-24T05:25:08.561Z,92959.67
2023-03-24T05:30:16.954Z,92953.45
2023-03-24T05:35:25.295Z,92957.29
2023-03-24T05:40:32.265Z,92959.25
2023-03-24T05:45:40.137Z,92955.88
2023-03-24T05:50:47.412Z,92940.39
2023-03-24T05:55:54.607Z,92943.95
2023-03-24T06:01:01.495Z,92937.34
2023-03-24T06:06:12.608Z,92930.69
2023-03-24T06:11:19.793Z,92936.11
2023-03-24T06:16:30.292Z,92938.72
2023-03-24T06:21:37.385Z,92938.04
2023-03-24T06:26:44.960Z,92946.80
2023-03-24T06:31:51.886Z,92946.30
2023-03-24T06:36:58.639Z,92937.71
2023-03-24T06:42:05.985Z,92935.94
2023-03-24T06:47:14.048Z,92933.11
2023-03-24T06:52:20.942Z,92929.59
2023-03-24T06:57:29.094Z,92937.20
2023-03-24T07:02:36.014Z,92923.31
2023-03-24T07:12:51.483Z,92919.31
2023-03-24T07:17:58.338Z,92924.77
2023-03-24T07:23:05.197Z,92931.80
2023-03-24T07:28:11.911Z,92926.81
2023-03-24T07:33:18.645Z,92924.59
2023-03-24T07:38:26.278Z,92917.18
2023-03-24T07:43:32.990Z,92906.52
2023-03-24T07:48:41.425Z,92908.84
2023-03-24T07:53:49.605Z,92905.37
2023-03-24T07:58:58.941Z,92907.03
2023-03-24T08:04:07.105Z,92899.14
2023-03-24T08:09:15.036Z,92906.05
2023-03-24T08:14:22.646Z,92906.73
2023-03-24T08:19:30.456Z,92901.03
2023-03-24T08:24:38.640Z,92895.58
2023-03-24T08:29:46.109Z,92893.80
2023-03-24T08:34:54.449Z,92887.79
2023-03-24T08:40:03.492Z,92886.30
2023-03-24T08:45:12.474Z,92894.97
2023-03-24T08:50:21.568Z,92889.77
2023-03-24T08:55:28.555Z,92889.36
2023-03-24T09:00:35.296Z,92892.45
2023-03-24T09:05:44.824Z,92881.45
2023-03-24T09:10:51.675Z,92883.28
2023-03-24T09:16:02.641Z,92873.00
2023-03-24T09:21:10.244Z,92876.75
2023-03-24T09:26:17.025Z,92876.92
2023-03-24T09:31:23.824Z,92872.23
2023-03-24T09:36:31.221Z,92870.80
2023-03-24T09:41:38.607Z,92871.92
2023-03-24T09:46:49.913Z,92865.63
2023-03-24T09:52:07.131Z,92854.89
2023-03-24T09:57:41.248Z,92851.47
2023-03-24T10:02:49.718Z,92851.63
2023-03-24T10:08:35.264Z,92847.58
2023-03-24T10:14:20.946Z,92850.08
2023-03-24T10:19:35.208Z,92849.27
2023-03-24T10:24:55.227Z,92841.23
2023-03-24T10:30:27.597Z,92844.32
2023-03-24T10:35:38.242Z,92842.77
2023-03-24T10:40:47.136Z,92838.41
2023-03-24T10:45:59.771Z,92835.30
2023-03-24T10:51:06.502Z,92843.33
2023-03-24T10:56:19.373Z,92845.36
2023-03-24T11:01:32.132Z,92843.92
2023-03-24T11:06:39.045Z,92830.88
2023-03-24T11:11:46.470Z,92825.66
2023-03-24T11:16:54.582Z,92821.47
2023-03-24T11:22:05.712Z,92812.89
2023-03-24T11:27:16.764Z,92804.44
2023-03-24T11:32:30.287Z,92805.97
2023-03-24T11:37:38.478Z,92804.75
2023-03-24T11:42:53.995Z,92798.06
2023-03-24T11:48:01.687Z,92803.52
2023-03-24T11:53:27.987Z,92799.45
2023-03-24T11:58:54.290Z,92809.72
2023-03-24T12:04:21.908Z,92799.45
2023-03-24T12:09:41.989Z,92794.59
2023-03-24T12:15:25.122Z,92781.60
2023-03-24T12:20:46.024Z,92781.64
2023-03-24T12:26:03.438Z,92778.38
2023-03-24T12:31:50.472Z,92782.94
2023-03-24T12:37:07.165Z,92776.91
2023-03-24T12:42:19.366Z,92777.94
2023-03-24T12:48:14.012Z,92779.03
2023-03-24T12:53:47.893Z,92780.53
2023-03-24T12:59:02.897Z,92786.05
2023-03-24T13:04:33.294Z,92776.67
2023-03-24T13:10:08.326Z,92758.27
2023-03-24T13:15:19.359Z,92745.75
2023-03-24T13:20:35.963Z,92723.67
2023-03-24T13:26:09.474Z,92724.55
2023-03-24T13:31:18.268Z,92741.78
2023-03-24T13:36:50.128Z,92737.42
2023-03-24T13:41:59.725Z,92729.18
2023-03-24T13:47:18.156Z,92742.28
2023-03-24T13:52:45.275Z,92743.73
2023-03-24T13:58:01.917Z,92734.44
2023-03-24T14:03:20.257Z,92733.66
2023-03-24T14:08:55.512Z,92717.68
2023-03-24T14:14:21.271Z,92710.96
2023-03-24T14:19:43.127Z,92704.73
2023-03-24T14:25:00.546Z,92690.39
2023-03-24T14:30:22.974Z,92689.63
2023-03-24T14:35:49.123Z,92699.12
2023-03-24T14:41:01.656Z,92693.53
2023-03-24T14:46:24.937Z,92689.17
2023-03-24T14:51:53.739Z,92675.89
2023-03-24T14:57:02.121Z,92684.61
2023-03-24T15:02:26.175Z,92682.81
2023-03-24T15:07:32.839Z,92679.25
2023-03-24T15:12:39.580Z,92684.61
2023-03-24T15:17:47.357Z,92689.17
2023-03-24T15:22:55.549Z,92680.53
2023-03-24T15:28:02.292Z,92688.77
2023-03-24T15:33:11.816Z,92686.72
2023-03-24T15:38:24.968Z,92685.69
2023-03-24T15:43:31.735Z,92685.64
2023-03-24T15:48:40.021Z,92682.63
2023-03-24T15:53:58.813Z,92675.11
2023-03-24T15:59:13.679Z,92678.64
2023-03-24T16:04:23.224Z,92678.70
2023-03-24T16:09:38.166Z,92678.60
2023-03-24T16:14:44.916Z,92674.08
2023-03-24T16:19:51.640Z,92664.92
2023-03-24T16:25:01.182Z,92669.59
2023-03-24T16:30:25.883Z,92675.73
2023-03-24T16:35:32.721Z,92701.73
2023-03-24T16:40:47.026Z,92682.50
2023-03-24T16:45:54.187Z,92688.73
2023-03-24T16:51:01.854Z,92690.53
2023-03-24T16:56:10.872Z,92685.16
2023-03-24T17:01:32.094Z,92684.09
2023-03-24T17:06:41.440Z,92684.09
2023-03-24T17:11:58.779Z,92682.59
2023-03-24T17:17:07.523Z,92679.08
2023-03-24T17:22:16.779Z,92679.69
2023-03-24T17:27:23.904Z,92683.87
2023-03-24T17:32:33.585Z,92682.77
2023-03-24T17:37:40.889Z,92687.30
2023-03-24T17:42:48.828Z,92694.52
2023-03-24T17:47:55.689Z,92703.83
2023-03-24T17:53:03.049Z,92715.47
2023-03-24T17:58:09.941Z,92728.42
2023-03-24T18:03:17.153Z,92733.29
2023-03-24T18:08:24.337Z,92743.38
2023-03-24T18:13:31.442Z,92741.16
2023-03-24T18:18:40.092Z,92736.11
2023-03-24T18:23:49.445Z,92745.53
2023-03-24T18:28:56.619Z,92741.00
2023-03-24T18:34:04.793Z,92742.89
2023-03-24T18:39:12.277Z,92747.84
2023-03-24T18:44:19.364Z,92739.52
2023-03-24T18:49:27.056Z,92751.45
2023-03-24T18:54:34.155Z,92748.06
2023-03-24T18:59:42.080Z,92745.19
2023-03-24T19:04:50.003Z,92747.83
2023-03-24T19:09:59.701Z,92753.52
2023-03-24T19:15:08.890Z,92748.27
2023-03-24T19:20:16.747Z,92762.36
2023-03-24T19:25:24.933Z,92755.30
2023-03-24T19:30:32.118Z,92760.66
2023-03-24T19:35:39.331Z,92755.13
2023-03-24T19:40:46.885Z,92757.81
2023-03-24T19:45:56.453Z,92770.57
2023-03-24T19:51:03.807Z,92771.34
2023-03-24T19:56:11.674Z,92770.45
2023-03-24T20:01:19.728Z,92771.96
2023-03-24T20:06:26.997Z,92774.63
2023-03-24T20:11:33.885Z,92780.74
2023-03-24T20:16:41.185Z,92788.80
2023-03-24T20:21:48.087Z,92786.51
2023-03-24T20:26:54.876Z,92795.59
2023-03-24T20:32:01.929Z,92790.56
2023-03-24T20:37:09.554Z,92791.52
2023-03-24T20:42:18.025Z,92800.16
2023-03-24T20:47:25.120Z,92819.35
2023-03-24T20:52:33.260Z,92820.83
2023-03-24T20:57:40.551Z,92824.44
2023-03-24T21:02:48.072Z,92819.59
2023-03-24T21:07:55.865Z,92824.62
2023-03-24T21:13:05.468Z,92817.16
2023-03-24T21:18:12.781Z,92819.20
2023-03-24T21:23:21.339Z,92834.57
2023-03-24T21:28:31.577Z,92841.02
2023-03-24T21:33:40.578Z,92840.22
2023-03-24T21:38:49.207Z,92846.01
2023-03-24T21:43:56.233Z,92847.48
2023-03-24T21:49:03.092Z,92856.20
2023-03-24T21:54:10.211Z,92873.73
2023-03-24T21:59:17.022Z,92878.82
2023-03-24T22:04:25.464Z,92891.96
2023-03-24T22:09:32.497Z,92899.63
2023-03-24T22:14:39.465Z,92911.14
2023-03-24T22:19:46.294Z,92927.75
2023-03-24T22:24:53.039Z,92953.22
2023-03-24T22:30:00.704Z,92957.30
2023-03-24T22:35:08.914Z,92938.93
2023-03-24T22:40:15.798Z,92942.95
2023-03-24T22:45:23.268Z,92947.22
2023-03-24T22:50:30.839Z,92935.69
2023-03-24T22:55:39.110Z,92948.20
2023-03-24T23:00:50.499Z,92951.64
2023-03-24T23:06:29.323Z,92955.59
2023-03-24T23:11:36.470Z,92954.61
2023-03-24T23:16:43.790Z,92961.19
2023-03-24T23:21:50.927Z,92957.35
2023-03-24T23:26:58.236Z,92955.71
2023-03-24T23:32:05.341Z,92940.97
2023-03-24T23:37:14.125Z,92931.77
2023-03-24T23:42:20.984Z,92913.42
2023-03-24T23:47:29.428Z,92894.25
2023-03-24T23:52:37.891Z,92907.02
2023-03-24T23:57:45.663Z,92897.97
